sensor_id;sensor_type;location;lat;lon;timestamp;P1;durP1;ratioP1;P2;durP2;ratioP2
29568;SDS011;16501;51.462;14.346;2022-10-31T00:01:50;10.35;;;7.55;;
29568;SDS011;16501;51.462;14.346;2022-10-31T00:04:15;10.15;;;7.43;;
29568;SDS011;16501;51.462;14.346;2022-10-31T00:06:40;11.07;;;6.07;;
29568;SDS011;16501;51.462;14.346;2022-10-31T00:09:06;8.80;;;6.82;;
29568;SDS011;16501;51.462;14.346;2022-10-31T00:11:31;10.45;;;6.30;;
29568;SDS011;16501;51.462;14.346;2022-10-31T00:13:59;10.00;;;6.13;;
29568;SDS011;16501;51.462;14.346;2022-10-31T00:16:25;6.55;;;5.85;;
29568;SDS011;16501;51.462;14.346;2022-10-31T00:18:54;8.30;;;6.07;;
29568;SDS011;16501;51.462;14.346;2022-10-31T00:21:21;8.82;;;5.68;;
29568;SDS011;16501;51.462;14.346;2022-10-31T00:23:47;8.32;;;5.97;;
29568;SDS011;16501;51.462;14.346;2022-10-31T00:26:13;8.20;;;5.82;;
29568;SDS011;16501;51.462;14.346;2022-10-31T00:28:38;11.10;;;5.50;;
29568;SDS011;16501;51.462;14.346;2022-10-31T00:31:04;7.80;;;5.68;;
29568;SDS011;16501;51.462;14.346;2022-10-31T00:33:33;9.35;;;6.53;;
29568;SDS011;16501;51.462;14.346;2022-10-31T00:35:59;12.45;;;6.45;;
29568;SDS011;16501;51.462;14.346;2022-10-31T00:38:24;9.23;;;6.32;;
29568;SDS011;16501;51.462;14.346;2022-10-31T00:40:50;9.43;;;6.10;;
29568;SDS011;16501;51.462;14.346;2022-10-31T00:43:15;7.43;;;5.85;;
29568;SDS011;16501;51.462;14.346;2022-10-31T00:45:41;16.48;;;6.30;;
29568;SDS011;16501;51.462;14.346;2022-10-31T00:48:09;8.80;;;5.93;;
29568;SDS011;16501;51.462;14.346;2022-10-31T00:50:34;9.82;;;6.50;;
29568;SDS011;16501;51.462;14.346;2022-10-31T00:53:00;11.20;;;6.05;;
29568;SDS011;16501;51.462;14.346;2022-10-31T00:55:25;9.43;;;5.75;;
29568;SDS011;16501;51.462;14.346;2022-10-31T00:57:50;7.78;;;5.22;;
29568;SDS011;16501;51.462;14.346;2022-10-31T01:00:16;10.15;;;6.35;;
29568;SDS011;16501;51.462;14.346;2022-10-31T01:02:41;11.10;;;6.25;;
29568;SDS011;16501;51.462;14.346;2022-10-31T01:05:07;10.68;;;7.38;;
29568;SDS011;16501;51.462;14.346;2022-10-31T01:07:35;9.40;;;6.45;;
29568;SDS011;16501;51.462;14.346;2022-10-31T01:10:01;11.07;;;6.43;;
29568;SDS011;16501;51.462;14.346;2022-10-31T01:12:26;13.73;;;7.05;;
29568;SDS011;16501;51.462;14.346;2022-10-31T01:14:51;10.18;;;6.43;;
29568;SDS011;16501;51.462;14.346;2022-10-31T01:17:16;15.02;;;6.97;;
29568;SDS011;16501;51.462;14.346;2022-10-31T01:19:42;14.80;;;7.05;;
29568;SDS011;16501;51.462;14.346;2022-10-31T01:22:07;13.70;;;7.22;;
29568;SDS011;16501;51.462;14.346;2022-10-31T01:24:32;9.63;;;6.47;;
29568;SDS011;16501;51.462;14.346;2022-10-31T01:26:58;9.50;;;6.78;;
29568;SDS011;16501;51.462;14.346;2022-10-31T01:29:23;10.10;;;6.85;;
29568;SDS011;16501;51.462;14.346;2022-10-31T01:31:48;16.75;;;7.32;;
29568;SDS011;16501;51.462;14.346;2022-10-31T01:34:14;12.45;;;7.07;;
29568;SDS011;16501;51.462;14.346;2022-10-31T01:36:41;12.45;;;7.85;;
29568;SDS011;16501;51.462;14.346;2022-10-31T01:39:12;16.88;;;6.50;;
29568;SDS011;16501;51.462;14.346;2022-10-31T01:41:40;14.02;;;7.03;;
29568;SDS011;16501;51.462;14.346;2022-10-31T01:46:40;8.60;;;6.03;;
29568;SDS011;16501;51.462;14.346;2022-10-31T01:49:09;10.50;;;6.72;;
29568;SDS011;16501;51.462;14.346;2022-10-31T01:51:41;10.25;;;7.00;;
29568;SDS011;16501;51.462;14.346;2022-10-31T01:54:13;9.20;;;6.63;;
29568;SDS011;16501;51.462;14.346;2022-10-31T01:56:41;13.75;;;6.90;;
29568;SDS011;16501;51.462;14.346;2022-10-31T01:59:10;11.35;;;7.30;;
29568;SDS011;16501;51.462;14.346;2022-10-31T02:01:37;13.77;;;7.00;;
29568;SDS011;16501;51.462;14.346;2022-10-31T02:04:02;9.82;;;6.15;;
29568;SDS011;16501;51.462;14.346;2022-10-31T02:06:38;10.50;;;6.97;;
29568;SDS011;16501;51.462;14.346;2022-10-31T02:09:09;12.25;;;7.47;;
29568;SDS011;16501;51.462;14.346;2022-10-31T02:11:37;17.48;;;8.20;;
29568;SDS011;16501;51.462;14.346;2022-10-31T02:14:02;17.15;;;7.78;;
29568;SDS011;16501;51.462;14.346;2022-10-31T02:16:28;14.23;;;7.68;;
29568;SDS011;16501;51.462;14.346;2022-10-31T02:18:53;18.08;;;8.00;;
29568;SDS011;16501;51.462;14.346;2022-10-31T02:21:31;11.93;;;7.05;;
29568;SDS011;16501;51.462;14.346;2022-10-31T02:27:02;17.33;;;8.73;;
29568;SDS011;16501;51.462;14.346;2022-10-31T02:29:53;18.67;;;8.70;;
29568;SDS011;16501;51.462;14.346;2022-10-31T02:32:33;18.02;;;8.52;;
29568;SDS011;16501;51.462;14.346;2022-10-31T02:35:13;12.57;;;8.05;;
29568;SDS011;16501;51.462;14.346;2022-10-31T02:37:51;12.27;;;8.00;;
29568;SDS011;16501;51.462;14.346;2022-10-31T02:43:05;15.48;;;7.28;;
29568;SDS011;16501;51.462;14.346;2022-10-31T02:48:08;17.33;;;7.85;;
29568;SDS011;16501;51.462;14.346;2022-10-31T02:50:38;16.35;;;7.30;;
29568;SDS011;16501;51.462;14.346;2022-10-31T02:53:06;19.35;;;6.80;;
29568;SDS011;16501;51.462;14.346;2022-10-31T02:58:04;16.38;;;6.55;;
29568;SDS011;16501;51.462;14.346;2022-10-31T03:01:20;14.82;;;6.93;;
29568;SDS011;16501;51.462;14.346;2022-10-31T03:03:30;13.67;;;7.00;;
29568;SDS011;16501;51.462;14.346;2022-10-31T03:06:03;14.07;;;7.05;;
29568;SDS011;16501;51.462;14.346;2022-10-31T03:08:55;21.10;;;7.15;;
29568;SDS011;16501;51.462;14.346;2022-10-31T03:11:29;14.80;;;6.80;;
29568;SDS011;16501;51.462;14.346;2022-10-31T03:14:11;14.30;;;7.63;;
29568;SDS011;16501;51.462;14.346;2022-10-31T03:16:49;22.02;;;7.53;;
29568;SDS011;16501;51.462;14.346;2022-10-31T03:19:26;17.58;;;7.72;;
29568;SDS011;16501;51.462;14.346;2022-10-31T03:22:03;14.88;;;8.15;;
29568;SDS011;16501;51.462;14.346;2022-10-31T03:24:40;19.90;;;6.90;;
29568;SDS011;16501;51.462;14.346;2022-10-31T03:27:07;12.70;;;6.95;;
29568;SDS011;16501;51.462;14.346;2022-10-31T03:29:36;13.63;;;6.10;;
29568;SDS011;16501;51.462;14.346;2022-10-31T03:32:04;15.52;;;7.03;;
29568;SDS011;16501;51.462;14.346;2022-10-31T03:34:33;18.50;;;6.03;;
29568;SDS011;16501;51.462;14.346;2022-10-31T03:37:06;15.02;;;6.30;;
29568;SDS011;16501;51.462;14.346;2022-10-31T03:39:33;11.23;;;5.82;;
29568;SDS011;16501;51.462;14.346;2022-10-31T03:42:04;15.57;;;6.50;;
29568;SDS011;16501;51.462;14.346;2022-10-31T03:44:33;11.45;;;6.65;;
29568;SDS011;16501;51.462;14.346;2022-10-31T03:47:00;12.55;;;5.88;;
29568;SDS011;16501;51.462;14.346;2022-10-31T03:49:27;11.45;;;6.40;;
29568;SDS011;16501;51.462;14.346;2022-10-31T03:56:57;8.50;;;5.60;;
29568;SDS011;16501;51.462;14.346;2022-10-31T03:59:34;14.98;;;6.65;;
29568;SDS011;16501;51.462;14.346;2022-10-31T04:02:07;11.43;;;6.07;;
29568;SDS011;16501;51.462;14.346;2022-10-31T04:04:37;16.05;;;6.53;;
29568;SDS011;16501;51.462;14.346;2022-10-31T04:07:04;11.65;;;5.93;;
29568;SDS011;16501;51.462;14.346;2022-10-31T04:09:32;12.25;;;5.95;;
29568;SDS011;16501;51.462;14.346;2022-10-31T04:12:00;12.80;;;6.40;;
29568;SDS011;16501;51.462;14.346;2022-10-31T04:14:29;11.85;;;5.63;;
29568;SDS011;16501;51.462;14.346;2022-10-31T04:16:57;10.18;;;5.65;;
29568;SDS011;16501;51.462;14.346;2022-10-31T04:19:22;10.90;;;5.68;;
29568;SDS011;16501;51.462;14.346;2022-10-31T04:21:47;8.95;;;5.53;;
29568;SDS011;16501;51.462;14.346;2022-10-31T04:24:13;13.48;;;5.32;;
29568;SDS011;16501;51.462;14.346;2022-10-31T04:26:38;9.85;;;5.82;;
29568;SDS011;16501;51.462;14.346;2022-10-31T04:29:03;15.77;;;6.85;;
29568;SDS011;16501;51.462;14.346;2022-10-31T04:31:28;11.57;;;5.50;;
29568;SDS011;16501;51.462;14.346;2022-10-31T04:33:54;17.00;;;6.15;;
29568;SDS011;16501;51.462;14.346;2022-10-31T04:36:19;12.68;;;5.80;;
29568;SDS011;16501;51.462;14.346;2022-10-31T04:38:44;8.35;;;5.22;;
29568;SDS011;16501;51.462;14.346;2022-10-31T04:41:09;11.27;;;5.50;;
29568;SDS011;16501;51.462;14.346;2022-10-31T04:43:35;9.35;;;5.38;;
29568;SDS011;16501;51.462;14.346;2022-10-31T04:46:00;13.00;;;5.30;;
29568;SDS011;16501;51.462;14.346;2022-10-31T04:48:26;11.32;;;5.10;;
29568;SDS011;16501;51.462;14.346;2022-10-31T04:50:51;13.20;;;5.55;;
29568;SDS011;16501;51.462;14.346;2022-10-31T04:53:16;12.63;;;5.45;;
29568;SDS011;16501;51.462;14.346;2022-10-31T04:55:41;11.38;;;5.60;;
29568;SDS011;16501;51.462;14.346;2022-10-31T04:58:07;16.27;;;4.75;;
29568;SDS011;16501;51.462;14.346;2022-10-31T05:00:32;10.20;;;4.95;;
29568;SDS011;16501;51.462;14.346;2022-10-31T05:02:57;11.93;;;5.53;;
29568;SDS011;16501;51.462;14.346;2022-10-31T05:05:24;12.88;;;5.05;;
29568;SDS011;16501;51.462;14.346;2022-10-31T05:07:53;11.38;;;5.30;;
29568;SDS011;16501;51.462;14.346;2022-10-31T05:10:20;10.35;;;4.82;;
29568;SDS011;16501;51.462;14.346;2022-10-31T05:12:51;11.18;;;4.75;;
29568;SDS011;16501;51.462;14.346;2022-10-31T05:15:18;12.38;;;5.20;;
29568;SDS011;16501;51.462;14.346;2022-10-31T05:17:44;11.25;;;5.68;;
29568;SDS011;16501;51.462;14.346;2022-10-31T05:20:10;10.00;;;4.78;;
29568;SDS011;16501;51.462;14.346;2022-10-31T05:22:36;8.05;;;5.10;;
29568;SDS011;16501;51.462;14.346;2022-10-31T05:25:01;12.80;;;5.93;;
29568;SDS011;16501;51.462;14.346;2022-10-31T05:27:26;9.38;;;4.50;;
29568;SDS011;16501;51.462;14.346;2022-10-31T05:29:52;8.23;;;4.22;;
29568;SDS011;16501;51.462;14.346;2022-10-31T05:32:17;9.15;;;4.72;;
29568;SDS011;16501;51.462;14.346;2022-10-31T05:34:42;8.15;;;4.55;;
29568;SDS011;16501;51.462;14.346;2022-10-31T05:37:07;18.15;;;5.10;;
29568;SDS011;16501;51.462;14.346;2022-10-31T05:39:33;9.88;;;4.57;;
29568;SDS011;16501;51.462;14.346;2022-10-31T05:41:58;10.23;;;5.00;;
29568;SDS011;16501;51.462;14.346;2022-10-31T05:44:23;9.75;;;5.50;;
29568;SDS011;16501;51.462;14.346;2022-10-31T05:46:48;9.82;;;5.63;;
29568;SDS011;16501;51.462;14.346;2022-10-31T05:49:14;8.95;;;5.70;;
29568;SDS011;16501;51.462;14.346;2022-10-31T05:51:39;10.90;;;5.20;;
29568;SDS011;16501;51.462;14.346;2022-10-31T05:54:04;13.70;;;5.32;;
29568;SDS011;16501;51.462;14.346;2022-10-31T05:56:29;11.52;;;6.00;;
29568;SDS011;16501;51.462;14.346;2022-10-31T05:58:55;10.35;;;5.55;;
29568;SDS011;16501;51.462;14.346;2022-10-31T06:01:20;12.13;;;4.70;;
29568;SDS011;16501;51.462;14.346;2022-10-31T06:03:45;12.40;;;5.82;;
29568;SDS011;16501;51.462;14.346;2022-10-31T06:06:10;13.45;;;5.68;;
29568;SDS011;16501;51.462;14.346;2022-10-31T06:08:36;15.85;;;5.68;;
29568;SDS011;16501;51.462;14.346;2022-10-31T06:11:01;13.98;;;5.13;;
29568;SDS011;16501;51.462;14.346;2022-10-31T06:13:26;10.70;;;5.32;;
29568;SDS011;16501;51.462;14.346;2022-10-31T06:15:52;7.93;;;4.90;;
29568;SDS011;16501;51.462;14.346;2022-10-31T06:18:17;12.15;;;5.18;;
29568;SDS011;16501;51.462;14.346;2022-10-31T06:20:42;9.63;;;4.32;;
29568;SDS011;16501;51.462;14.346;2022-10-31T06:23:07;12.50;;;5.55;;
29568;SDS011;16501;51.462;14.346;2022-10-31T06:25:33;9.63;;;5.28;;
29568;SDS011;16501;51.462;14.346;2022-10-31T06:27:58;8.93;;;5.13;;
29568;SDS011;16501;51.462;14.346;2022-10-31T06:30:24;8.40;;;5.07;;
29568;SDS011;16501;51.462;14.346;2022-10-31T06:32:50;8.18;;;3.95;;
29568;SDS011;16501;51.462;14.346;2022-10-31T06:35:15;15.73;;;4.78;;
29568;SDS011;16501;51.462;14.346;2022-10-31T06:37:41;11.30;;;4.50;;
29568;SDS011;16501;51.462;14.346;2022-10-31T06:40:06;11.10;;;4.13;;
29568;SDS011;16501;51.462;14.346;2022-10-31T06:42:32;16.80;;;5.30;;
29568;SDS011;16501;51.462;14.346;2022-10-31T06:44:57;6.30;;;4.32;;
29568;SDS011;16501;51.462;14.346;2022-10-31T06:47:22;7.53;;;4.43;;
29568;SDS011;16501;51.462;14.346;2022-10-31T06:49:47;8.88;;;4.88;;
29568;SDS011;16501;51.462;14.346;2022-10-31T06:52:13;20.60;;;4.55;;
29568;SDS011;16501;51.462;14.346;2022-10-31T06:54:38;8.23;;;4.68;;
29568;SDS011;16501;51.462;14.346;2022-10-31T06:57:03;12.18;;;4.20;;
29568;SDS011;16501;51.462;14.346;2022-10-31T06:59:28;9.25;;;5.28;;
29568;SDS011;16501;51.462;14.346;2022-10-31T07:01:54;16.90;;;5.40;;
29568;SDS011;16501;51.462;14.346;2022-10-31T07:04:19;6.25;;;3.28;;
29568;SDS011;16501;51.462;14.346;2022-10-31T07:06:44;8.07;;;3.67;;
29568;SDS011;16501;51.462;14.346;2022-10-31T07:09:09;14.88;;;4.47;;
29568;SDS011;16501;51.462;14.346;2022-10-31T07:11:35;8.43;;;3.70;;
29568;SDS011;16501;51.462;14.346;2022-10-31T07:14:00;12.18;;;4.03;;
29568;SDS011;16501;51.462;14.346;2022-10-31T07:16:25;16.60;;;4.68;;
29568;SDS011;16501;51.462;14.346;2022-10-31T07:18:51;12.55;;;4.50;;
29568;SDS011;16501;51.462;14.346;2022-10-31T07:21:16;11.45;;;3.80;;
29568;SDS011;16501;51.462;14.346;2022-10-31T07:23:41;9.60;;;5.32;;
29568;SDS011;16501;51.462;14.346;2022-10-31T07:26:07;8.70;;;4.80;;
29568;SDS011;16501;51.462;14.346;2022-10-31T07:28:34;15.65;;;5.10;;
29568;SDS011;16501;51.462;14.346;2022-10-31T07:30:59;8.65;;;4.78;;
29568;SDS011;16501;51.462;14.346;2022-10-31T07:33:25;17.38;;;5.78;;
29568;SDS011;16501;51.462;14.346;2022-10-31T07:35:51;13.00;;;5.20;;
29568;SDS011;16501;51.462;14.346;2022-10-31T07:38:16;10.38;;;5.53;;
29568;SDS011;16501;51.462;14.346;2022-10-31T07:40:42;14.20;;;5.55;;
29568;SDS011;16501;51.462;14.346;2022-10-31T07:43:08;20.23;;;6.60;;
29568;SDS011;16501;51.462;14.346;2022-10-31T07:45:35;15.40;;;5.57;;
29568;SDS011;16501;51.462;14.346;2022-10-31T07:48:00;15.52;;;5.70;;
29568;SDS011;16501;51.462;14.346;2022-10-31T07:50:28;12.80;;;5.43;;
29568;SDS011;16501;51.462;14.346;2022-10-31T07:53:04;11.30;;;5.78;;
29568;SDS011;16501;51.462;14.346;2022-10-31T07:55:31;16.08;;;6.00;;
29568;SDS011;16501;51.462;14.346;2022-10-31T07:58:00;9.77;;;5.35;;
29568;SDS011;16501;51.462;14.346;2022-10-31T08:00:26;14.30;;;5.57;;
29568;SDS011;16501;51.462;14.346;2022-10-31T08:03:01;11.35;;;4.93;;
29568;SDS011;16501;51.462;14.346;2022-10-31T08:05:28;16.60;;;5.13;;
29568;SDS011;16501;51.462;14.346;2022-10-31T08:07:54;18.45;;;6.68;;
29568;SDS011;16501;51.462;14.346;2022-10-31T08:10:19;14.73;;;5.50;;
29568;SDS011;16501;51.462;14.346;2022-10-31T08:12:45;10.40;;;4.85;;
29568;SDS011;16501;51.462;14.346;2022-10-31T08:15:11;11.38;;;5.28;;
29568;SDS011;16501;51.462;14.346;2022-10-31T08:17:36;9.43;;;4.88;;
29568;SDS011;16501;51.462;14.346;2022-10-31T08:20:02;10.27;;;5.30;;
29568;SDS011;16501;51.462;14.346;2022-10-31T08:22:31;14.85;;;4.85;;
29568;SDS011;16501;51.462;14.346;2022-10-31T08:24:56;19.30;;;5.25;;
29568;SDS011;16501;51.462;14.346;2022-10-31T08:27:21;13.15;;;5.00;;
29568;SDS011;16501;51.462;14.346;2022-10-31T08:29:47;15.90;;;5.25;;
29568;SDS011;16501;51.462;14.346;2022-10-31T08:32:13;11.93;;;5.03;;
29568;SDS011;16501;51.462;14.346;2022-10-31T08:34:38;15.45;;;5.90;;
29568;SDS011;16501;51.462;14.346;2022-10-31T08:37:03;12.88;;;5.45;;
29568;SDS011;16501;51.462;14.346;2022-10-31T08:39:29;11.20;;;6.00;;
29568;SDS011;16501;51.462;14.346;2022-10-31T08:41:54;19.45;;;6.28;;
29568;SDS011;16501;51.462;14.346;2022-10-31T08:44:19;14.57;;;6.07;;
29568;SDS011;16501;51.462;14.346;2022-10-31T08:46:44;19.10;;;6.63;;
29568;SDS011;16501;51.462;14.346;2022-10-31T08:49:10;15.95;;;6.60;;
29568;SDS011;16501;51.462;14.346;2022-10-31T08:51:35;13.25;;;6.72;;
29568;SDS011;16501;51.462;14.346;2022-10-31T08:54:00;16.00;;;5.30;;
29568;SDS011;16501;51.462;14.346;2022-10-31T08:56:25;15.77;;;6.20;;
29568;SDS011;16501;51.462;14.346;2022-10-31T08:58:52;23.67;;;5.95;;
29568;SDS011;16501;51.462;14.346;2022-10-31T09:01:18;16.25;;;5.82;;
29568;SDS011;16501;51.462;14.346;2022-10-31T09:03:43;11.60;;;5.30;;
29568;SDS011;16501;51.462;14.346;2022-10-31T09:06:08;15.63;;;6.22;;
29568;SDS011;16501;51.462;14.346;2022-10-31T09:08:34;15.65;;;7.82;;
29568;SDS011;16501;51.462;14.346;2022-10-31T09:11:00;19.63;;;6.32;;
29568;SDS011;16501;51.462;14.346;2022-10-31T09:13:26;17.52;;;5.70;;
29568;SDS011;16501;51.462;14.346;2022-10-31T09:15:51;30.48;;;14.10;;
29568;SDS011;16501;51.462;14.346;2022-10-31T09:18:18;28.80;;;23.75;;
29568;SDS011;16501;51.462;14.346;2022-10-31T09:20:45;19.15;;;10.30;;
29568;SDS011;16501;51.462;14.346;2022-10-31T09:23:12;19.85;;;7.45;;
29568;SDS011;16501;51.462;14.346;2022-10-31T09:25:39;17.17;;;7.55;;
29568;SDS011;16501;51.462;14.346;2022-10-31T09:28:05;20.40;;;6.88;;
29568;SDS011;16501;51.462;14.346;2022-10-31T09:30:33;13.00;;;5.90;;
29568;SDS011;16501;51.462;14.346;2022-10-31T09:33:00;14.68;;;6.35;;
29568;SDS011;16501;51.462;14.346;2022-10-31T09:35:27;19.15;;;7.13;;
29568;SDS011;16501;51.462;14.346;2022-10-31T09:37:54;18.25;;;6.68;;
29568;SDS011;16501;51.462;14.346;2022-10-31T09:40:20;15.95;;;5.63;;
29568;SDS011;16501;51.462;14.346;2022-10-31T09:43:31;19.17;;;6.13;;
29568;SDS011;16501;51.462;14.346;2022-10-31T09:45:52;12.07;;;5.90;;
29568;SDS011;16501;51.462;14.346;2022-10-31T09:48:31;14.60;;;6.30;;
29568;SDS011;16501;51.462;14.346;2022-10-31T09:51:19;14.52;;;5.60;;
29568;SDS011;16501;51.462;14.346;2022-10-31T09:53:53;12.90;;;5.95;;
29568;SDS011;16501;51.462;14.346;2022-10-31T09:56:25;19.70;;;6.30;;
29568;SDS011;16501;51.462;14.346;2022-10-31T09:58:58;16.52;;;6.38;;
29568;SDS011;16501;51.462;14.346;2022-10-31T10:06:56;17.40;;;6.65;;
29568;SDS011;16501;51.462;14.346;2022-10-31T10:09:24;19.38;;;7.72;;
29568;SDS011;16501;51.462;14.346;2022-10-31T10:11:55;16.63;;;6.72;;
29568;SDS011;16501;51.462;14.346;2022-10-31T10:14:46;21.88;;;6.30;;
29568;SDS011;16501;51.462;14.346;2022-10-31T10:22:56;18.00;;;6.68;;
29568;SDS011;16501;51.462;14.346;2022-10-31T10:25:33;21.05;;;7.20;;
29568;SDS011;16501;51.462;14.346;2022-10-31T10:30:43;15.30;;;6.88;;
29568;SDS011;16501;51.462;14.346;2022-10-31T10:33:12;13.93;;;5.95;;
29568;SDS011;16501;51.462;14.346;2022-10-31T10:35:45;17.15;;;6.07;;
29568;SDS011;16501;51.462;14.346;2022-10-31T10:41:03;14.77;;;5.38;;
29568;SDS011;16501;51.462;14.346;2022-10-31T10:43:35;14.82;;;5.25;;
29568;SDS011;16501;51.462;14.346;2022-10-31T10:51:43;19.88;;;5.95;;
29568;SDS011;16501;51.462;14.346;2022-10-31T10:57:22;16.67;;;5.20;;
29568;SDS011;16501;51.462;14.346;2022-10-31T10:59:54;15.48;;;5.70;;
29568;SDS011;16501;51.462;14.346;2022-10-31T11:02:21;12.38;;;5.90;;
29568;SDS011;16501;51.462;14.346;2022-10-31T11:04:55;12.32;;;5.38;;
29568;SDS011;16501;51.462;14.346;2022-10-31T11:07:23;17.38;;;5.57;;
29568;SDS011;16501;51.462;14.346;2022-10-31T11:09:48;16.65;;;6.22;;
29568;SDS011;16501;51.462;14.346;2022-10-31T11:12:28;12.60;;;5.63;;
29568;SDS011;16501;51.462;14.346;2022-10-31T11:14:56;19.30;;;6.43;;
29568;SDS011;16501;51.462;14.346;2022-10-31T11:17:30;16.10;;;5.80;;
29568;SDS011;16501;51.462;14.346;2022-10-31T11:20:01;20.15;;;7.32;;
29568;SDS011;16501;51.462;14.346;2022-10-31T11:22:36;20.63;;;5.55;;
29568;SDS011;16501;51.462;14.346;2022-10-31T11:25:11;22.27;;;6.55;;
29568;SDS011;16501;51.462;14.346;2022-10-31T11:27:58;21.30;;;5.07;;
29568;SDS011;16501;51.462;14.346;2022-10-31T11:30:24;13.73;;;6.07;;
29568;SDS011;16501;51.462;14.346;2022-10-31T11:32:50;16.17;;;6.10;;
29568;SDS011;16501;51.462;14.346;2022-10-31T11:35:17;17.30;;;6.65;;
29568;SDS011;16501;51.462;14.346;2022-10-31T11:37:45;17.83;;;6.07;;
29568;SDS011;16501;51.462;14.346;2022-10-31T11:40:17;13.90;;;6.05;;
29568;SDS011;16501;51.462;14.346;2022-10-31T11:42:44;14.48;;;5.80;;
29568;SDS011;16501;51.462;14.346;2022-10-31T11:47:51;17.52;;;6.53;;
29568;SDS011;16501;51.462;14.346;2022-10-31T11:50:24;13.75;;;5.63;;
29568;SDS011;16501;51.462;14.346;2022-10-31T11:53:00;20.85;;;6.25;;
29568;SDS011;16501;51.462;14.346;2022-10-31T11:55:36;14.50;;;5.85;;
29568;SDS011;16501;51.462;14.346;2022-10-31T11:58:03;18.10;;;6.40;;
29568;SDS011;16501;51.462;14.346;2022-10-31T12:00:30;19.63;;;6.32;;
29568;SDS011;16501;51.462;14.346;2022-10-31T12:03:11;21.48;;;5.90;;
29568;SDS011;16501;51.462;14.346;2022-10-31T12:05:56;21.73;;;5.97;;
29568;SDS011;16501;51.462;14.346;2022-10-31T12:08:42;17.95;;;6.53;;
29568;SDS011;16501;51.462;14.346;2022-10-31T12:16:31;17.25;;;5.65;;
29568;SDS011;16501;51.462;14.346;2022-10-31T12:19:06;22.42;;;6.90;;
29568;SDS011;16501;51.462;14.346;2022-10-31T12:35:57;19.02;;;6.47;;
29568;SDS011;16501;51.462;14.346;2022-10-31T12:43:57;14.45;;;5.82;;
29568;SDS011;16501;51.462;14.346;2022-10-31T12:46:35;18.85;;;6.38;;
29568;SDS011;16501;51.462;14.346;2022-10-31T12:49:17;16.83;;;5.95;;
29568;SDS011;16501;51.462;14.346;2022-10-31T12:52:00;13.23;;;6.75;;
29568;SDS011;16501;51.462;14.346;2022-10-31T12:54:45;20.48;;;6.97;;
29568;SDS011;16501;51.462;14.346;2022-10-31T12:57:27;17.00;;;6.05;;
29568;SDS011;16501;51.462;14.346;2022-10-31T13:05:05;19.38;;;6.35;;
29568;SDS011;16501;51.462;14.346;2022-10-31T13:07:44;19.40;;;6.10;;
29568;SDS011;16501;51.462;14.346;2022-10-31T13:10:19;19.77;;;5.90;;
29568;SDS011;16501;51.462;14.346;2022-10-31T13:15:19;16.60;;;6.78;;
29568;SDS011;16501;51.462;14.346;2022-10-31T13:17:57;13.18;;;5.78;;
29568;SDS011;16501;51.462;14.346;2022-10-31T13:20:30;18.70;;;5.80;;
29568;SDS011;16501;51.462;14.346;2022-10-31T13:25:53;16.88;;;5.72;;
29568;SDS011;16501;51.462;14.346;2022-10-31T13:28:29;15.10;;;5.93;;
29568;SDS011;16501;51.462;14.346;2022-10-31T13:31:30;16.92;;;5.22;;
29568;SDS011;16501;51.462;14.346;2022-10-31T13:33:56;18.52;;;6.03;;
29568;SDS011;16501;51.462;14.346;2022-10-31T13:36:32;13.98;;;6.07;;
29568;SDS011;16501;51.462;14.346;2022-10-31T13:39:33;23.48;;;6.45;;
29568;SDS011;16501;51.462;14.346;2022-10-31T13:45:16;16.10;;;6.63;;
29568;SDS011;16501;51.462;14.346;2022-10-31T13:47:54;12.38;;;5.45;;
29568;SDS011;16501;51.462;14.346;2022-10-31T13:50:22;29.48;;;6.65;;
29568;SDS011;16501;51.462;14.346;2022-10-31T13:52:49;18.48;;;7.03;;
29568;SDS011;16501;51.462;14.346;2022-10-31T13:58:03;11.57;;;6.63;;
29568;SDS011;16501;51.462;14.346;2022-10-31T14:00:30;17.08;;;6.97;;
29568;SDS011;16501;51.462;14.346;2022-10-31T14:02:59;20.60;;;7.00;;
29568;SDS011;16501;51.462;14.346;2022-10-31T14:08:01;18.23;;;5.88;;
29568;SDS011;16501;51.462;14.346;2022-10-31T14:10:32;25.73;;;6.95;;
29568;SDS011;16501;51.462;14.346;2022-10-31T14:13:05;17.65;;;6.28;;
29568;SDS011;16501;51.462;14.346;2022-10-31T14:15:38;19.08;;;6.43;;
29568;SDS011;16501;51.462;14.346;2022-10-31T14:18:18;17.52;;;5.85;;
29568;SDS011;16501;51.462;14.346;2022-10-31T14:23:50;16.60;;;6.22;;
29568;SDS011;16501;51.462;14.346;2022-10-31T14:28:50;12.18;;;5.55;;
29568;SDS011;16501;51.462;14.346;2022-10-31T14:31:27;18.00;;;5.20;;
29568;SDS011;16501;51.462;14.346;2022-10-31T14:34:06;17.60;;;5.53;;
29568;SDS011;16501;51.462;14.346;2022-10-31T14:37:04;12.77;;;5.53;;
29568;SDS011;16501;51.462;14.346;2022-10-31T14:39:35;15.90;;;6.03;;
29568;SDS011;16501;51.462;14.346;2022-10-31T14:53:05;17.35;;;5.93;;
29568;SDS011;16501;51.462;14.346;2022-10-31T14:55:35;16.05;;;6.38;;
29568;SDS011;16501;51.462;14.346;2022-10-31T14:58:07;20.00;;;6.50;;
29568;SDS011;16501;51.462;14.346;2022-10-31T15:00:33;19.63;;;6.18;;
29568;SDS011;16501;51.462;14.346;2022-10-31T15:05:42;15.75;;;6.43;;
29568;SDS011;16501;51.462;14.346;2022-10-31T15:11:15;14.55;;;6.25;;
29568;SDS011;16501;51.462;14.346;2022-10-31T15:16:15;17.98;;;6.20;;
29568;SDS011;16501;51.462;14.346;2022-10-31T15:18:46;12.52;;;5.95;;
29568;SDS011;16501;51.462;14.346;2022-10-31T15:21:14;15.13;;;6.32;;
29568;SDS011;16501;51.462;14.346;2022-10-31T15:23:41;21.13;;;6.13;;
29568;SDS011;16501;51.462;14.346;2022-10-31T15:26:11;12.30;;;5.82;;
29568;SDS011;16501;51.462;14.346;2022-10-31T15:28:41;24.70;;;6.65;;
29568;SDS011;16501;51.462;14.346;2022-10-31T15:31:12;19.25;;;6.03;;
29568;SDS011;16501;51.462;14.346;2022-10-31T15:33:40;19.15;;;6.45;;
29568;SDS011;16501;51.462;14.346;2022-10-31T15:36:17;19.60;;;7.93;;
29568;SDS011;16501;51.462;14.346;2022-10-31T15:38:45;16.65;;;7.55;;
29568;SDS011;16501;51.462;14.346;2022-10-31T15:41:21;19.63;;;6.90;;
29568;SDS011;16501;51.462;14.346;2022-10-31T15:43:57;18.73;;;7.00;;
29568;SDS011;16501;51.462;14.346;2022-10-31T15:46:28;20.80;;;7.05;;
29568;SDS011;16501;51.462;14.346;2022-10-31T15:48:54;14.48;;;6.63;;
29568;SDS011;16501;51.462;14.346;2022-10-31T15:51:27;16.48;;;5.93;;
29568;SDS011;16501;51.462;14.346;2022-10-31T15:53:56;14.18;;;7.00;;
29568;SDS011;16501;51.462;14.346;2022-10-31T15:56:25;21.67;;;6.90;;
29568;SDS011;16501;51.462;14.346;2022-10-31T15:58:54;17.50;;;6.32;;
29568;SDS011;16501;51.462;14.346;2022-10-31T16:01:28;12.55;;;6.43;;
29568;SDS011;16501;51.462;14.346;2022-10-31T16:04:02;17.75;;;6.85;;
29568;SDS011;16501;51.462;14.346;2022-10-31T16:06:36;13.55;;;6.55;;
29568;SDS011;16501;51.462;14.346;2022-10-31T16:09:02;18.27;;;6.95;;
29568;SDS011;16501;51.462;14.346;2022-10-31T16:11:32;14.98;;;6.25;;
29568;SDS011;16501;51.462;14.346;2022-10-31T16:14:05;8.75;;;5.70;;
29568;SDS011;16501;51.462;14.346;2022-10-31T16:16:41;18.65;;;7.28;;
29568;SDS011;16501;51.462;14.346;2022-10-31T16:19:16;19.67;;;7.22;;
29568;SDS011;16501;51.462;14.346;2022-10-31T16:21:45;20.48;;;8.10;;
29568;SDS011;16501;51.462;14.346;2022-10-31T16:24:16;15.57;;;6.35;;
29568;SDS011;16501;51.462;14.346;2022-10-31T16:26:57;21.60;;;7.05;;
29568;SDS011;16501;51.462;14.346;2022-10-31T16:32:03;12.15;;;6.30;;
29568;SDS011;16501;51.462;14.346;2022-10-31T16:34:28;16.75;;;6.70;;